Central Sonoma County Latest

37 Stations

15 Minute Data | America/Los_Angeles
as of 5/7/26 9:04 PM PDT
Station Date Time Temp (°F) RH (%) Dew Pt (°F) Wind Spd (mph) Wind Dir (°) Wind Gust (mph) Latest Rain (In) Daily Rain (In) Daily Max Temp (°F) Daily Min Temp (°F)
Windsor-NW (Ranch 8) 5/7/26 2100 55.2   1.5 82   0 49.9   1.5 2.2   0.9 SSE | 157 7.7   0.3 0.00 0.00 74.3   2.9 52.0   2.3
Windsor-East (Ranch 16) 5/7/26 2100 55.9   1.7 85   4 51.4   0.4 4.6   1.0 SSE | 149 9.2   1.0 0.00 0.00 72.0   3.1 51.6   3.0
Mark West-North (Ranch 14) 5/7/26 2100 54.9   1.9 86   4 50.7   0.5 2.7   0.6 NW | 324 7.1   0.8 0.00 0.00 70.9   3.7 51.8   2.5
Windsor-SE (Silk Rd) 5/7/26 2030 56.2   2.6 85   5 51.8   0.9 3.3   0.2 ESE | 121 8.0   0.4 0.00 0.00 72.5   2.1 52.3   2.5
Fulton-NW (Ranch 5) 5/7/26 2100 54.4   1.6 89   4 51.3   0.5 4.3   0.2 ESE | 118 8.4   0.3 0.00 0.00 71.6   2.4 51.9   2.4
Bisordi (Fulton) 5/7/26 2100 54.7   1.7 88   2 51.2   0.9 3.1   1.0 SE | 145 8.3   1.3 0.00 0.00 70.8   2.8 52.2   2.3
Windsor-South (Laughlin Rd) 5/7/26 2100 54.0 88 50.5 - - - 0.00 0.00 72.5 51.7
Fulton-SE (Barnes Rd) 5/7/26 2100 55.5   1.9 85   4 51.1   0.6 3.7   1.2 SE | 132 8.8   1.7 0.00 0.00 70.9   2.2 52.1   2.8
Fulton-SW (Ranch 21) 5/7/26 2100 53.6   1.6 89   2 50.5   1.0 5.0   1.9 SSE | 150 9.2   1.5 0.00 0.00 69.7   3.4 51.2   2.8
NW Santa Rosa (Piner Road) 5/7/26 2100 53.6   1.3 100   0 53.6   1.3 2.6   1.1 SE | 131 5.3   4.4 0.00 0.00 69.0   3.8 51.5   2.8
River Rd South (Denner Ranch) 5/7/26 2100 52.9   1.7 0   54 -66.0   66.6 5.0   0.3 ESE | 106 7.9   1.5 - - 72.1   2.5 51.1   2.8
West Santa Rosa (LOV Vineyard) 5/7/26 2100 53.6   1.5 90   2 50.8   0.7 0.4   0.4 SE | 125 2.7   0.2 0.00 0.00 71.2   1.6 51.5   2.9
Guerneville Rd (Prokopakis) 5/7/26 2100 54.1   1.7 91   3 51.6   0.7 - - - 0.00 0.00 73.1   4.7 51.8   2.9
SunnyView Vineyard (SCWC) 5/7/26 2100 53.0   1.3 90   2 50.3   0.5 2.1   0.9 SE | 130 6.3   1.7 0.00 0.00 69.6   3.9 51.1   2.9
Guerneville Rd West (Balletto) 5/7/26 2100 53.8   1.6 93   2 51.8   1.0 3.3   0.6 ESE | 123 5.9   0.7 0.00 0.00 71.2   1.3 51.7   3.0
Sanchietti Ranch 5/7/26 2100 53.8   1.2 92   1 51.4   0.8 3.8   0.8 SE | 141 7.1   0.8 0.00 0.00 69.7   3.3 52.2   2.8
Occidental Rd (Sebastopol) 5/7/26 2100 51.8   1.5 100   0 51.8   1.4 1.8   0.8 SE | 130 3.9   1.1 0.00 0.00 71.2   1.1 51.2   1.8
Harper's Rest (Windsor-West) 5/7/26 2100 53.6   2.3 87   4 49.9   0.9 2.1   1.5 E | 99 5.3   1.5 0.00 0.00 74.5   1.7 50.7   2.7
Lower Westside Rd (Ranch 12) 5/7/26 2100 55.4   2.2 86   4 51.4   0.7 1.4   2.2 SE | 129 3.1   4.2 0.00 0.00 76.0   1.5 51.6   3.0
Guerneville (Laughlin Rd) 5/7/26 2100 53.7   1.3 89   2 50.5   0.5 0.0   0.5 N | 0 0.0   3.9 0.00 0.00 72.2   1.5 51.5   2.4
Korbel (Winery) 5/7/26 2100 56.1   1.1 85   3 51.8   0.0 0.0   0.0 N | 0 0.0   0.0 0.00 0.00 74.1   0.7 52.0   2.6
Forestville (Shone Farms) 5/7/26 2100 54.9   2.6 88   5 51.6   1.0 2.1   1.7 E | 98 4.1   3.2 0.00 0.00 75.4   0.8 49.9   2.4
Forestville-NE (Ranch 30) 5/7/26 2100 54.2   2.5 91   4 51.5   1.1 3.4   0.7 ESE | 114 6.0   0.2 0.00 0.00 75.9   0.3 50.9   3.0
Foggy Bend (Ranch 41) 5/7/26 2100 56.0   4.0 87   8 52.1   1.4 1.3   0.2 ENE | 74 3.4   1.0 0.00 0.00 75.6   0.3 52.2   2.8
Last Stop 5/7/26 2100 54.2   1.1 86   0 50.2   1.0 1.2   1.0 SE | 124 3.4   1.5 0.00 0.00 76.0   1.8 51.4   2.9
Green Valley Vineyard 5/7/26 2100 53.9   4.6 90   13 51.1   0.4 0.6   1.1 NNW | 345 1.8   1.5 0.00 0.00 73.4   0.7 50.1   3.3
Park Royal 5/7/26 2100 53.6   1.2 89   2 50.5   0.5 - - - 0.00 0.00 69.6   3.4 51.1   3.0
Merino 5/7/26 2100 52.7   1.5 95   3 51.3   0.6 3.0   0.8 SE | 142 5.8   2.0 0.00 0.00 69.4   3.5 51.5   2.5
Green Valley (Sanchietti) 5/7/26 2100 55.6   2.5 - - - - - - - 76.5   0.1 50.4   4.3
Keefer Ranch (Green Valley) 5/7/26 2100 53.4   5.2 91   8 50.9   2.5 - - - 0.00 0.00 74.2   1.2 51.3   3.1
Graton-West (Dutton Ranch) 5/7/26 2100 55.6   3.0 100   0 55.6   3.0 0.8   1.1 NNW | 335 1.8   1.6 0.00 0.00 75.3   0.7 51.5   3.0
Graton-South (Mill Station Rd) 5/7/26 2100 53.7   1.8 89   3 50.6   0.8 0.1   0.4 S | 187 2.0   1.5 0.00 0.00 70.3   0.4 50.7   3.0
Occidental (Horseshoe Bend) 5/7/26 2100 51.6   2.4 92   4 49.5   1.1 - - - 0.00 0.01 71.0   1.7 49.2   2.2
Sexton Valley (Jacqueline's Blk) 5/7/26 2100 53.1   1.8 92   3 50.9   1.0 1.7   0.7 S | 169 3.9   0.2 0.00 0.00 69.4   0.3 51.1   3.1
Sebastopol Hills (Burnside Rd) 5/7/26 2100 51.6   1.7 97   3 50.7   0.8 4.8   1.1 SW | 222 8.9   1.7 0.00 0.00 65.4   1.2 49.6   2.7
Pleasant Hill 5/7/26 2100 51.1   2.5 92   3 49.0   1.7 0.3   2.3 NE | 43 2.0   3.4 0.00 0.00 68.3   0.6 50.3   2.9
Seaview/Fort Ross (Hirsch) 5/7/26 2100 56.4   1.2 86   2 52.4   1.7 1.0   0.2 N | 10 3.0   0.2 0.00 0.00 63.6   1.3 47.2   1.8
Max     56.4 100 55.6 5.0 - 9.2 0.00 0.01 76.5 52.3
Avg     54.1 87 47.9 2.3 - 5.2 0.00 - - -
Min     51.1 0 -66.0 0.0 - 0.0 0.00 0.00 63.6 47.2